Time;durP1;ratioP1;P1;durP2;ratioP2;P2;SDS_P1;SDS_P2;PMS_P1;PMS_P2;Temp;Humidity;BMP_temperature;BMP_pressure;BME280_temperature;BME280_humidity;BME280_pressure;Samples;Min_cycle;Max_cycle;Signal;HPM_P1;HPM_P2
2022/02/16 00:00:50;;;;;;;2.17;0.98;;;9.00;71.10;;;;;;6210390;28;20046;-81
2022/02/16 00:03:52;;;;;;;2.17;0.50;;;9.00;71.10;;;;;;6207505;28;20428;-81
2022/02/16 00:06:56;;;;;;;5.95;0.40;;;9.00;71.20;;;;;;6208913;28;20109;-81
2022/02/16 00:09:57;;;;;;;2.15;0.57;;;9.00;71.10;;;;;;6207687;28;20042;-82
2022/02/16 00:12:59;;;;;;;3.33;0.43;;;9.10;71.40;;;;;;6207950;28;20062;-82
2022/02/16 00:16:08;;;;;;;1.77;0.50;;;9.10;71.30;;;;;;6207130;28;20136;-80
2022/02/16 00:19:10;;;;;;;2.85;0.60;;;9.00;71.30;;;;;;6209253;28;20050;-80
2022/02/16 00:22:13;;;;;;;2.08;0.40;;;9.10;71.20;;;;;;6208838;28;20596;-80
2022/02/16 00:25:14;;;;;;;3.35;0.60;;;9.00;71.10;;;;;;6208030;28;20141;-81
2022/02/16 00:28:17;;;;;;;2.20;0.50;;;9.00;71.10;;;;;;6207318;28;20460;-81
2022/02/16 00:31:19;;;;;;;3.38;0.60;;;9.00;71.10;;;;;;6205784;28;20046;-80
2022/02/16 00:34:21;;;;;;;4.03;0.60;;;9.00;71.10;;;;;;6206499;28;20065;-81
2022/02/16 00:37:24;;;;;;;1.95;0.40;;;9.00;71.00;;;;;;6207677;28;20157;-81
2022/02/16 00:40:26;;;;;;;3.17;0.77;;;9.10;71.00;;;;;;6208139;28;20072;-79
2022/02/16 00:43:29;;;;;;;4.03;0.52;;;9.10;71.00;;;;;;6208083;28;20416;-80
2022/02/16 00:46:31;;;;;;;3.22;0.80;;;9.10;70.90;;;;;;6208320;28;20049;-81
2022/02/16 00:49:33;;;;;;;2.00;0.57;;;9.10;70.80;;;;;;6206811;28;20121;-80
2022/02/16 00:52:36;;;;;;;4.80;0.60;;;9.10;70.40;;;;;;6207359;28;20078;-80
2022/02/16 00:55:37;;;;;;;6.07;1.13;;;9.10;70.60;;;;;;6205314;28;20046;-80
2022/02/16 00:58:39;;;;;;;1.38;0.43;;;9.10;70.80;;;;;;6207163;28;20062;-81
2022/02/16 01:01:41;;;;;;;1.75;0.52;;;9.10;70.70;;;;;;6206436;28;20056;-81
2022/02/16 01:04:43;;;;;;;3.22;0.38;;;9.10;70.80;;;;;;6208080;28;20106;-80
2022/02/16 01:07:46;;;;;;;2.63;0.57;;;9.20;70.80;;;;;;6208595;28;20054;-80
2022/02/16 01:10:48;;;;;;;3.60;0.95;;;9.20;71.60;;;;;;6208785;28;20403;-80
2022/02/16 01:13:50;;;;;;;13.23;1.30;;;9.20;71.20;;;;;;6207297;28;20066;-80
2022/02/16 01:16:52;;;;;;;1.02;0.38;;;9.20;71.30;;;;;;6208474;28;20066;-82
2022/02/16 01:19:54;;;;;;;1.75;0.65;;;9.20;71.60;;;;;;6200681;28;20082;-80
2022/02/16 01:22:57;;;;;;;1.33;0.28;;;9.20;71.80;;;;;;6198039;28;20520;-79
2022/02/16 01:25:59;;;;;;;2.28;0.65;;;9.20;72.10;;;;;;6180951;28;20097;-81
2022/02/16 01:29:00;;;;;;;5.07;0.82;;;9.20;72.50;;;;;;6213282;22;20102;-82
2022/02/16 01:32:02;;;;;;;4.50;1.85;;;9.10;72.90;;;;;;6179321;28;20050;-80
2022/02/16 01:35:05;;;;;;;1.10;0.47;;;9.10;73.70;;;;;;6179394;28;20126;-79
2022/02/16 01:38:09;;;;;;;0.88;0.43;;;9.00;74.40;;;;;;6177499;28;20053;-80
2022/02/16 01:41:15;;;;;;;6.50;0.95;;;9.00;75.10;;;;;;6180129;28;20157;-81
2022/02/16 01:44:20;;;;;;;2.90;0.45;;;9.00;75.80;;;;;;6179012;28;20145;-81
2022/02/16 01:47:22;;;;;;;6.68;0.88;;;9.00;76.70;;;;;;6179051;28;20047;-80
2022/02/16 01:50:24;;;;;;;0.95;0.30;;;8.90;77.30;;;;;;6178804;28;20518;-79
2022/02/16 01:53:27;;;;;;;6.32;1.17;;;8.90;78.20;;;;;;6179396;28;20047;-80
2022/02/16 01:56:29;;;;;;;1.27;0.40;;;8.80;78.80;;;;;;6179658;28;20047;-80
2022/02/16 01:59:31;;;;;;;0.75;0.30;;;8.70;79.70;;;;;;6178323;28;20057;-81
2022/02/16 02:02:33;;;;;;;6.07;0.40;;;8.70;80.30;;;;;;6178951;28;20051;-80
2022/02/16 02:05:35;;;;;;;1.98;0.52;;;8.60;81.00;;;;;;6181895;28;20061;-80
2022/02/16 02:08:38;;;;;;;2.50;0.50;;;8.60;81.80;;;;;;6183448;28;20051;-80
2022/02/16 02:11:40;;;;;;;0.68;0.30;;;8.60;82.50;;;;;;6183974;28;20039;-81
2022/02/16 02:14:42;;;;;;;5.68;0.90;;;8.50;82.80;;;;;;6185498;28;20563;-80
2022/02/16 02:17:43;;;;;;;2.70;0.40;;;8.40;83.30;;;;;;6185157;28;20043;-81
2022/02/16 02:20:46;;;;;;;1.70;0.30;;;8.40;84.10;;;;;;6185912;28;20047;-81
2022/02/16 02:23:49;;;;;;;3.63;0.60;;;8.40;84.50;;;;;;6184661;28;20440;-81
2022/02/16 02:26:51;;;;;;;2.42;0.57;;;8.40;84.80;;;;;;6185450;28;20058;-80
2022/02/16 02:29:53;;;;;;;6.18;1.10;;;8.30;85.20;;;;;;6184736;28;20054;-80
2022/02/16 02:32:54;;;;;;;1.02;0.30;;;8.30;85.70;;;;;;6186425;28;20050;-80
2022/02/16 02:35:58;;;;;;;0.88;0.40;;;8.30;86.10;;;;;;6183777;28;20047;-81
2022/02/16 02:39:00;;;;;;;1.88;0.45;;;8.20;86.60;;;;;;6185482;28;20046;-81
2022/02/16 02:42:02;;;;;;;0.98;0.40;;;8.20;87.10;;;;;;6190367;28;20149;-81
2022/02/16 02:45:04;;;;;;;1.00;0.30;;;8.10;87.10;;;;;;6190526;28;20051;-80
2022/02/16 02:48:06;;;;;;;4.60;0.40;;;8.10;87.50;;;;;;6189239;28;20065;-81
2022/02/16 02:51:10;;;;;;;2.45;0.30;;;8.10;88.00;;;;;;6188545;28;20475;-81
2022/02/16 02:54:12;;;;;;;1.92;0.45;;;8.00;88.10;;;;;;6186552;28;20050;-80
2022/02/16 02:57:13;;;;;;;1.02;0.32;;;8.00;88.50;;;;;;6187170;28;20050;-80
2022/02/16 03:00:16;;;;;;;4.40;0.68;;;7.90;89.00;;;;;;6186694;28;20424;-80
2022/02/16 03:03:17;;;;;;;3.58;0.40;;;7.90;89.00;;;;;;6186255;28;20055;-80
2022/02/16 03:06:21;;;;;;;1.55;0.40;;;7.90;89.00;;;;;;6186226;28;20057;-80
2022/02/16 03:09:22;;;;;;;0.93;0.50;;;8.00;89.40;;;;;;6185370;28;20047;-80
2022/02/16 03:12:24;;;;;;;1.08;0.20;;;8.00;89.20;;;;;;6186593;28;20043;-80
2022/02/16 03:15:26;;;;;;;1.40;0.20;;;7.90;89.00;;;;;;6184942;28;20046;-80
2022/02/16 03:18:28;;;;;;;2.92;0.50;;;7.90;89.30;;;;;;6185002;28;20417;-80
2022/02/16 03:21:31;;;;;;;3.35;0.57;;;7.90;89.50;;;;;;6185275;28;20082;-80
2022/02/16 03:24:34;;;;;;;4.47;1.13;;;8.00;89.50;;;;;;6185440;28;20061;-80
2022/02/16 03:27:36;;;;;;;1.90;0.30;;;8.00;89.20;;;;;;6192759;28;20054;-80
2022/02/16 03:30:38;;;;;;;1.02;0.40;;;8.00;89.10;;;;;;6185019;28;20148;-80
2022/02/16 03:33:40;;;;;;;1.73;0.35;;;8.00;89.00;;;;;;6183854;28;20412;-80
2022/02/16 03:36:43;;;;;;;1.38;0.30;;;8.00;89.00;;;;;;6183416;28;20059;-81
2022/02/16 03:39:45;;;;;;;5.22;1.95;;;8.00;89.20;;;;;;6181702;28;20552;-81
2022/02/16 03:42:48;;;;;;;1.83;0.60;;;8.10;89.10;;;;;;6178333;28;20055;-81
2022/02/16 03:45:49;;;;;;;2.50;0.40;;;8.10;89.10;;;;;;6192644;28;20116;-80
2022/02/16 03:48:51;;;;;;;3.80;0.40;;;8.10;89.10;;;;;;6207503;28;20057;-80
2022/02/16 03:51:54;;;;;;;3.00;0.57;;;8.10;90.00;;;;;;6190473;28;20047;-81
2022/02/16 03:54:56;;;;;;;1.50;0.30;;;8.10;89.60;;;;;;6181882;28;20057;-80
2022/02/16 03:57:58;;;;;;;2.63;0.38;;;8.10;89.40;;;;;;6181659;28;20413;-81
2022/02/16 04:01:00;;;;;;;0.85;0.32;;;8.10;89.60;;;;;;6182401;28;20051;-80
2022/02/16 04:04:02;;;;;;;2.40;0.32;;;8.10;89.80;;;;;;6180691;28;20159;-81
2022/02/16 04:07:06;;;;;;;3.05;0.30;;;8.00;90.00;;;;;;6181636;28;20046;-81
2022/02/16 04:10:08;;;;;;;1.20;0.63;;;8.00;90.10;;;;;;6181899;28;20113;-81
2022/02/16 04:13:10;;;;;;;3.97;0.43;;;7.90;90.20;;;;;;6186900;28;20049;-80
2022/02/16 04:16:12;;;;;;;2.10;0.28;;;8.00;90.30;;;;;;6198418;28;20046;-80
2022/02/16 04:19:13;;;;;;;0.73;0.35;;;7.90;90.40;;;;;;6206095;28;20057;-81
2022/02/16 04:22:17;;;;;;;0.38;0.20;;;7.90;90.50;;;;;;6206209;28;20046;-79
2022/02/16 04:25:19;;;;;;;0.82;0.30;;;7.90;90.60;;;;;;6206243;28;20459;-81
2022/02/16 04:28:23;;;;;;;4.95;0.40;;;7.90;90.40;;;;;;6203941;28;20061;-80
2022/02/16 04:31:25;;;;;;;0.52;0.20;;;8.00;90.60;;;;;;6204757;28;20089;-81
2022/02/16 04:34:26;;;;;;;1.40;0.40;;;8.00;90.40;;;;;;6203270;28;20632;-81
2022/02/16 04:37:29;;;;;;;4.55;0.32;;;8.00;90.40;;;;;;6204216;28;20061;-81
2022/02/16 04:40:31;;;;;;;1.23;0.28;;;8.00;90.50;;;;;;6203915;28;20057;-81
2022/02/16 04:43:33;;;;;;;0.68;0.10;;;8.00;90.50;;;;;;6199157;28;20551;-81
2022/02/16 04:46:35;;;;;;;4.43;2.05;;;8.00;90.40;;;;;;6195140;28;20097;-81
2022/02/16 04:49:37;;;;;;;2.22;0.13;;;8.00;90.50;;;;;;6203823;28;20394;-81
2022/02/16 04:52:40;;;;;;;0.82;0.20;;;8.10;90.40;;;;;;6203394;28;20054;-81
2022/02/16 04:55:42;;;;;;;0.55;0.30;;;8.10;90.40;;;;;;6203574;28;20133;-81
2022/02/16 04:58:43;;;;;;;3.78;0.30;;;8.10;90.20;;;;;;6202748;28;20056;-80
2022/02/16 05:01:45;;;;;;;1.55;0.25;;;8.10;90.10;;;;;;6201574;28;20079;-80
2022/02/16 05:04:47;;;;;;;4.03;0.13;;;8.20;90.00;;;;;;6202583;28;20046;-80
2022/02/16 05:07:50;;;;;;;3.80;0.30;;;8.20;90.00;;;;;;6202112;28;20046;-81
2022/02/16 05:10:52;;;;;;;3.13;0.22;;;8.30;89.70;;;;;;6201752;28;20177;-80
2022/02/16 05:13:54;;;;;;;0.80;0.30;;;8.30;89.20;;;;;;6196788;28;20518;-80
2022/02/16 05:16:56;;;;;;;1.38;0.28;;;8.30;89.50;;;;;;6196538;28;20412;-83
2022/02/16 05:19:57;;;;;;;1.90;0.30;;;8.30;89.40;;;;;;6202578;28;20133;-80
2022/02/16 05:23:02;;;;;;;2.42;1.08;;;8.40;88.80;;;;;;6201796;28;20499;-80
2022/02/16 05:26:04;;;;;;;0.10;0.03;;;8.40;88.80;;;;;;6202343;28;20411;-80
2022/02/16 05:29:07;;;;;;;0.30;0.08;;;8.40;88.90;;;;;;6202077;28;20058;-80
2022/02/16 05:32:09;;;;;;;1.90;0.30;;;8.40;88.80;;;;;;6202663;28;20038;-80
2022/02/16 05:35:11;;;;;;;1.88;0.30;;;8.50;88.60;;;;;;6201039;28;20403;-80
2022/02/16 05:38:14;;;;;;;3.35;0.30;;;8.40;88.60;;;;;;6202823;28;20050;-81
2022/02/16 05:41:16;;;;;;;0.73;0.35;;;8.50;88.50;;;;;;6206589;28;20488;-80
2022/02/16 05:44:18;;;;;;;1.30;0.30;;;8.50;88.20;;;;;;6197398;28;20053;-80
2022/02/16 05:47:20;;;;;;;0.73;0.10;;;8.50;87.90;;;;;;6203693;28;20056;-81
2022/02/16 05:50:22;;;;;;;0.98;0.25;;;8.60;87.30;;;;;;6207145;28;20042;-81
2022/02/16 05:53:25;;;;;;;1.55;0.20;;;8.60;87.40;;;;;;6207852;28;20061;-81
2022/02/16 05:56:27;;;;;;;0.63;0.28;;;8.70;87.40;;;;;;6204043;28;20043;-81
2022/02/16 05:59:29;;;;;;;0.17;0.10;;;8.70;87.10;;;;;;6185359;28;20496;-81
2022/02/16 06:02:31;;;;;;;0.08;0.00;;;8.80;87.00;;;;;;6181984;28;20051;-79
2022/02/16 06:05:33;;;;;;;0.63;0.35;;;8.80;86.80;;;;;;6181145;28;20062;-79
2022/02/16 06:08:37;;;;;;;0.55;0.20;;;8.90;87.00;;;;;;6182268;28;20057;-80
2022/02/16 06:11:38;;;;;;;0.50;0.20;;;8.90;86.90;;;;;;6181310;28;20146;-80
2022/02/16 06:14:40;;;;;;;0.13;0.10;;;9.00;86.80;;;;;;6189365;28;20054;-80
2022/02/16 06:17:42;;;;;;;0.32;0.20;;;9.00;87.80;;;;;;6205612;28;20053;-80
2022/02/16 06:20:44;;;;;;;1.65;0.10;;;9.00;87.30;;;;;;6205454;28;20488;-80
2022/02/16 06:23:47;;;;;;;0.60;0.20;;;9.00;87.70;;;;;;6204671;28;20053;-79
2022/02/16 06:26:49;;;;;;;0.50;0.20;;;9.10;88.00;;;;;;6205458;28;20042;-80
2022/02/16 06:29:51;;;;;;;1.38;0.20;;;9.10;87.50;;;;;;6204569;28;20050;-80
2022/02/16 06:32:52;;;;;;;0.50;0.10;;;9.10;87.60;;;;;;6205757;28;20048;-80
2022/02/16 06:35:54;;;;;;;2.92;0.32;;;9.10;87.70;;;;;;6204234;28;20050;-80
2022/02/16 06:38:57;;;;;;;0.28;0.13;;;9.00;87.60;;;;;;6203992;28;20057;-79
2022/02/16 06:41:59;;;;;;;0.40;0.10;;;9.00;88.00;;;;;;6203850;28;20042;-80
2022/02/16 06:45:01;;;;;;;0.00;0.00;;;9.00;88.80;;;;;;6193912;28;20054;-80
2022/02/16 06:48:03;;;;;;;2.08;0.20;;;9.00;88.80;;;;;;6204310;28;20542;-80
2022/02/16 06:51:05;;;;;;;0.52;0.20;;;8.90;89.30;;;;;;6202644;28;20042;-80
2022/02/16 06:54:08;;;;;;;2.67;0.30;;;8.90;89.70;;;;;;6205145;28;20107;-78
2022/02/16 06:57:09;;;;;;;0.63;0.20;;;8.90;90.00;;;;;;6204046;28;20058;-80
2022/02/16 07:00:12;;;;;;;0.57;0.17;;;8.80;90.50;;;;;;6203819;28;20054;-80
2022/02/16 07:03:14;;;;;;;5.03;0.35;;;8.70;90.60;;;;;;6205609;28;20046;-80
2022/02/16 07:06:16;;;;;;;0.28;0.10;;;8.80;90.70;;;;;;6204522;28;20495;-80
2022/02/16 07:09:19;;;;;;;0.22;0.10;;;8.80;90.60;;;;;;6205029;28;20057;-80
2022/02/16 07:12:21;;;;;;;0.45;0.10;;;8.80;90.70;;;;;;6203663;28;20086;-79
2022/02/16 07:15:23;;;;;;;1.08;0.20;;;8.80;90.50;;;;;;6193782;28;20050;-80
2022/02/16 07:18:27;;;;;;;0.30;0.10;;;8.80;90.50;;;;;;6204983;28;20057;-80
2022/02/16 07:21:29;;;;;;;1.35;0.30;;;8.90;90.40;;;;;;6205200;28;20505;-79
2022/02/16 07:24:32;;;;;;;3.17;0.20;;;8.90;90.40;;;;;;6205179;28;20051;-80
2022/02/16 07:27:34;;;;;;;0.20;0.00;;;9.00;90.30;;;;;;6204947;28;20046;-80
2022/02/16 07:30:36;;;;;;;1.75;0.20;;;9.00;90.10;;;;;;6211406;22;20050;-82
2022/02/16 07:33:38;;;;;;;0.80;0.30;;;9.10;90.00;;;;;;6185049;28;20138;-83
2022/02/16 07:36:40;;;;;;;1.48;0.20;;;9.10;89.80;;;;;;6187420;28;20445;-81
2022/02/16 07:39:44;;;;;;;0.55;0.35;;;9.10;90.00;;;;;;6185278;28;20259;-84
2022/02/16 07:42:46;;;;;;;0.75;0.17;;;9.10;90.10;;;;;;6186299;28;20047;-84
2022/02/16 07:45:48;;;;;;;0.43;0.20;;;9.10;90.30;;;;;;6199898;28;20046;-84
2022/02/16 07:48:51;;;;;;;0.38;0.10;;;9.10;90.60;;;;;;6207563;28;20133;-84
2022/02/16 07:51:52;;;;;;;1.13;0.20;;;9.10;90.60;;;;;;6196446;28;20054;-83
2022/02/16 07:54:55;;;;;;;1.02;0.15;;;9.10;90.70;;;;;;6213459;28;20440;-83
2022/02/16 07:58:01;;;;;;;2.42;0.38;;;9.10;90.90;;;;;;6184982;28;20110;-84
2022/02/16 08:01:03;;;;;;;0.10;0.10;;;9.10;91.10;;;;;;6184711;28;20051;-82
2022/02/16 08:04:17;;;;;;;0.70;0.30;;;9.10;90.90;;;;;;6184719;28;20528;-83
2022/02/16 08:07:18;;;;;;;0.63;0.15;;;9.10;91.00;;;;;;6184107;28;20118;-84
2022/02/16 08:10:22;;;;;;;0.28;0.17;;;9.20;91.10;;;;;;6182738;28;20456;-84
2022/02/16 08:13:24;;;;;;;0.50;0.20;;;9.20;90.90;;;;;;6189259;28;20046;-82
2022/02/16 08:16:28;;;;;;;0.90;0.22;;;9.20;90.90;;;;;;6198237;28;20129;-83
2022/02/16 08:19:29;;;;;;;1.95;0.25;;;9.30;90.90;;;;;;6206066;28;20515;-82
2022/02/16 08:22:31;;;;;;;0.20;0.15;;;9.30;90.70;;;;;;6205816;28;20599;-83
2022/02/16 08:25:35;;;;;;;0.25;0.10;;;9.30;90.70;;;;;;6206093;28;20114;-84
2022/02/16 08:28:37;;;;;;;0.73;0.30;;;9.30;90.60;;;;;;6203231;28;20054;-81
2022/02/16 08:31:39;;;;;;;0.50;0.20;;;9.40;90.80;;;;;;6200824;28;20042;-82
2022/02/16 08:34:40;;;;;;;0.30;0.10;;;9.50;90.70;;;;;;6200379;28;20443;-81
2022/02/16 08:37:42;;;;;;;1.33;0.28;;;9.60;90.50;;;;;;6200948;28;20046;-81
2022/02/16 08:40:45;;;;;;;2.35;0.25;;;9.70;90.10;;;;;;6201251;28;20052;-81
2022/02/16 08:43:47;;;;;;;0.43;0.00;;;9.80;90.20;;;;;;6209043;28;20077;-82
2022/02/16 08:46:49;;;;;;;0.93;0.20;;;9.80;90.00;;;;;;6195066;28;20046;-81
2022/02/16 08:49:51;;;;;;;0.10;0.05;;;9.90;90.00;;;;;;6200912;28;20077;-80
2022/02/16 08:52:53;;;;;;;1.23;0.20;;;10.00;89.40;;;;;;6201468;28;20068;-80
2022/02/16 08:55:57;;;;;;;1.77;0.03;;;10.00;88.80;;;;;;6203049;28;20048;-81
2022/02/16 08:59:00;;;;;;;0.10;0.00;;;10.20;88.40;;;;;;6200014;28;20482;-80
2022/02/16 09:02:02;;;;;;;0.82;0.10;;;10.60;87.60;;;;;;6179079;28;20043;-82
2022/02/16 09:05:05;;;;;;;0.10;0.00;;;10.90;86.20;;;;;;6177022;28;20416;-81
2022/02/16 09:08:07;;;;;;;0.60;0.10;;;11.20;85.30;;;;;;6178284;28;20057;-80
2022/02/16 09:11:10;;;;;;;0.00;0.00;;;11.40;83.80;;;;;;6177316;28;20042;-81
2022/02/16 09:14:12;;;;;;;0.00;0.00;;;11.40;83.00;;;;;;6184281;28;20043;-80
2022/02/16 09:17:14;;;;;;;1.67;0.20;;;11.30;82.80;;;;;;6195607;28;20520;-80
2022/02/16 09:20:15;;;;;;;0.35;0.10;;;11.30;83.00;;;;;;6199874;28;20069;-81
2022/02/16 09:23:18;;;;;;;0.70;0.00;;;11.30;82.30;;;;;;6199935;28;20048;-83
2022/02/16 09:26:21;;;;;;;0.00;0.00;;;11.30;82.70;;;;;;6182484;28;20106;-81
2022/02/16 09:29:24;;;;;;;0.40;0.00;;;11.60;82.20;;;;;;6193416;28;20105;-83
2022/02/16 09:32:26;;;;;;;1.50;0.05;;;11.70;81.50;;;;;;6200820;28;20046;-79
2022/02/16 09:35:28;;;;;;;0.52;0.00;;;11.80;80.70;;;;;;6201044;28;20054;-83
2022/02/16 09:38:29;;;;;;;0.57;0.10;;;11.90;81.00;;;;;;6201261;28;20056;-82
2022/02/16 09:41:33;;;;;;;0.80;0.10;;;11.90;80.20;;;;;;6201103;28;20054;-82
2022/02/16 09:44:44;;;;;;;0.10;0.00;;;12.00;80.60;;;;;;6190674;28;20510;-80
2022/02/16 09:47:46;;;;;;;1.15;0.85;;;12.10;78.70;;;;;;6152896;28;20094;-81
2022/02/16 09:50:48;;;;;;;0.75;0.20;;;12.10;78.30;;;;;;6152546;28;20053;-81
2022/02/16 09:53:50;;;;;;;0.30;0.00;;;12.00;78.80;;;;;;6153135;28;20047;-83
2022/02/16 09:56:53;;;;;;;0.00;0.00;;;12.00;79.00;;;;;;6153079;29;20481;-81
2022/02/16 09:59:55;;;;;;;0.10;0.00;;;12.00;79.00;;;;;;6179768;28;20111;-80
2022/02/16 10:02:56;;;;;;;0.20;0.10;;;12.00;79.50;;;;;;6181514;28;20298;-83
2022/02/16 10:05:58;;;;;;;0.00;0.00;;;12.10;79.10;;;;;;6179541;28;20045;-81
2022/02/16 10:09:00;;;;;;;0.32;0.10;;;12.10;79.00;;;;;;6182295;28;20061;-82
2022/02/16 10:12:07;;;;;;;0.17;0.10;;;12.20;78.60;;;;;;6182902;28;20046;-82
2022/02/16 10:15:10;;;;;;;0.43;0.10;;;12.20;78.60;;;;;;6195463;28;20042;-82
2022/02/16 10:18:14;;;;;;;0.00;0.00;;;12.30;78.60;;;;;;6209513;28;20447;-81
2022/02/16 10:21:16;;;;;;;0.00;0.00;;;12.50;78.50;;;;;;6209411;28;20496;-82
2022/02/16 10:24:22;;;;;;;1.85;0.10;;;12.70;77.10;;;;;;6210455;28;20052;-81
2022/02/16 10:27:25;;;;;;;0.43;0.10;;;12.90;77.10;;;;;;6209277;28;20086;-81
2022/02/16 10:30:27;;;;;;;0.10;0.00;;;13.20;75.90;;;;;;6211352;28;20118;-82
2022/02/16 10:33:30;;;;;;;0.28;0.00;;;13.60;75.60;;;;;;6207015;28;20046;-82
2022/02/16 10:36:32;;;;;;;0.05;0.00;;;13.80;74.20;;;;;;6208285;28;20060;-79
2022/02/16 10:39:34;;;;;;;1.48;0.00;;;13.80;73.80;;;;;;6207299;28;20046;-83
2022/02/16 10:42:41;;;;;;;0.08;0.00;;;14.00;73.60;;;;;;6202057;28;20050;-80
2022/02/16 10:45:48;;;;;;;0.70;0.10;;;14.30;72.70;;;;;;6189972;28;20097;-82
2022/02/16 10:49:09;;;;;;;0.55;0.15;;;14.70;71.90;;;;;;6182607;28;20085;-81
2022/02/16 10:52:13;;;;;;;0.40;0.20;;;15.00;70.10;;;;;;6181935;28;20691;-80
2022/02/16 10:55:15;;;;;;;0.88;0.20;;;15.00;69.30;;;;;;6182334;28;20056;-81
2022/02/16 10:58:19;;;;;;;0.10;0.10;;;15.00;69.70;;;;;;6182861;28;20074;-82
2022/02/16 11:01:21;;;;;;;0.00;0.00;;;14.90;69.90;;;;;;6181218;28;20054;-81
2022/02/16 11:04:27;;;;;;;3.00;0.10;;;14.80;70.30;;;;;;6184345;28;20050;-82
2022/02/16 11:07:33;;;;;;;0.10;0.00;;;14.80;70.80;;;;;;6187634;28;20101;-82
2022/02/16 11:10:35;;;;;;;0.25;0.10;;;14.90;70.50;;;;;;6186943;28;20539;-83
2022/02/16 11:13:41;;;;;;;0.10;0.00;;;14.70;70.60;;;;;;6195564;28;20066;-83
2022/02/16 11:16:46;;;;;;;2.75;0.10;;;14.40;71.40;;;;;;6195663;28;20560;-83
2022/02/16 11:19:48;;;;;;;0.40;0.10;;;14.00;72.60;;;;;;6207803;28;20126;-83
2022/02/16 11:22:54;;;;;;;0.80;0.15;;;13.70;74.10;;;;;;6207793;28;20070;-82
2022/02/16 11:25:56;;;;;;;0.30;0.10;;;13.60;75.10;;;;;;6207477;28;20102;-82
2022/02/16 11:29:01;;;;;;;0.20;0.10;;;13.40;76.30;;;;;;6209161;28;20407;-81
2022/02/16 11:32:23;;;;;;;0.13;0.00;;;13.30;78.10;;;;;;6208742;28;20043;-82
2022/02/16 11:35:26;;;;;;;0.15;0.10;;;13.20;79.70;;;;;;6207535;28;20062;-83
2022/02/16 11:38:40;;;;;;;0.30;0.10;;;13.00;80.50;;;;;;6208294;28;20042;-79
2022/02/16 11:41:55;;;;;;;0.00;0.00;;;12.80;81.90;;;;;;6205882;28;20495;-81
2022/02/16 11:45:03;;;;;;;0.00;0.00;;;12.70;82.80;;;;;;6190870;28;20057;-81
2022/02/16 11:48:06;;;;;;;0.30;0.00;;;12.70;83.70;;;;;;6181351;28;20061;-79
2022/02/16 11:51:35;;;;;;;0.05;0.00;;;12.70;84.30;;;;;;6180716;28;20294;-82
2022/02/16 11:54:56;;;;;;;0.00;0.00;;;12.70;84.30;;;;;;6178045;28;20049;-80
2022/02/16 11:58:13;;;;;;;0.10;0.10;;;12.90;84.00;;;;;;6181300;28;20090;-82
2022/02/16 12:01:19;;;;;;;0.25;0.10;;;12.90;84.00;;;;;;6181140;28;20055;-82
2022/02/16 12:04:31;;;;;;;0.32;0.10;;;12.80;84.80;;;;;;6180851;28;20053;-81
2022/02/16 12:07:33;;;;;;;0.63;0.10;;;12.70;85.00;;;;;;6157935;28;20055;-82
2022/02/16 12:10:41;;;;;;;0.30;0.20;;;12.60;86.40;;;;;;6163222;28;20051;-82
2022/02/16 12:13:45;;;;;;;0.10;0.08;;;12.70;87.10;;;;;;6180415;28;20681;-81
2022/02/16 12:16:53;;;;;;;0.10;0.08;;;12.80;86.60;;;;;;6201332;28;20054;-82
2022/02/16 12:19:55;;;;;;;0.32;0.15;;;12.70;86.50;;;;;;6208712;28;20050;-81
2022/02/16 12:23:01;;;;;;;0.70;0.17;;;12.60;87.70;;;;;;6208459;28;20137;-82
2022/02/16 12:26:09;;;;;;;0.55;0.20;;;12.50;87.20;;;;;;6207770;28;20137;-83
2022/02/16 12:29:14;;;;;;;0.10;0.10;;;12.50;87.30;;;;;;6206609;28;20073;-82
2022/02/16 12:32:19;;;;;;;0.10;0.00;;;12.50;87.40;;;;;;6207206;28;20060;-82
2022/02/16 12:35:22;;;;;;;0.55;0.10;;;12.40;87.20;;;;;;6206656;28;20061;-83
2022/02/16 12:38:27;;;;;;;0.47;0.17;;;12.40;87.40;;;;;;6205355;28;20046;-82
2022/02/16 12:41:29;;;;;;;0.38;0.08;;;12.30;87.00;;;;;;6206118;28;20053;-81
2022/02/16 12:44:32;;;;;;;0.30;0.10;;;12.30;87.00;;;;;;6194529;28;20054;-81
2022/02/16 12:47:35;;;;;;;2.38;0.20;;;12.20;86.60;;;;;;6204107;28;20130;-82
2022/02/16 12:50:37;;;;;;;0.57;0.35;;;12.30;86.60;;;;;;6205518;28;20053;-82
2022/02/16 12:53:39;;;;;;;0.70;0.32;;;12.30;86.50;;;;;;6206050;28;20062;-83
2022/02/16 12:56:43;;;;;;;0.88;0.10;;;12.30;86.40;;;;;;6208449;28;20053;-80
2022/02/16 13:03:07;;;;;;;0.38;0.15;;;12.40;85.90;;;;;;6206326;28;20042;-80
2022/02/16 13:06:09;;;;;;;2.63;0.25;;;12.50;85.70;;;;;;6196906;28;20067;-81
2022/02/16 13:09:13;;;;;;;2.22;1.55;;;12.50;85.00;;;;;;6183091;28;20069;-82
2022/02/16 13:12:33;;;;;;;0.88;0.30;;;12.60;85.30;;;;;;6182405;28;20105;-85
2022/02/16 13:15:37;;;;;;;0.98;0.50;;;12.60;85.20;;;;;;6196881;28;20125;-82
2022/02/16 13:18:49;;;;;;;0.10;0.10;;;12.60;85.50;;;;;;6205972;28;20137;-84
2022/02/16 13:22:02;;;;;;;0.70;0.70;;;12.50;85.50;;;;;;6206419;28;20043;-82
2022/02/16 13:25:05;;;;;;;0.17;0.10;;;12.60;85.50;;;;;;6206848;28;20053;-80
2022/02/16 13:28:11;;;;;;;1.00;0.20;;;12.60;85.40;;;;;;6203868;28;20050;-80
2022/02/16 13:31:16;;;;;;;0.32;0.00;;;12.50;85.50;;;;;;6224097;22;20050;-84
2022/02/16 13:34:19;;;;;;;0.70;0.40;;;12.50;85.70;;;;;;6175830;28;20069;-80
2022/02/16 13:37:21;;;;;;;0.77;0.10;;;12.50;86.10;;;;;;6176440;28;20050;-79
2022/02/16 13:40:23;;;;;;;0.68;0.20;;;12.50;86.50;;;;;;6177335;28;20050;-79
2022/02/16 13:43:41;;;;;;;0.50;0.20;;;12.50;87.10;;;;;;6184002;28;20050;-79
2022/02/16 13:46:46;;;;;;;2.58;0.30;;;12.40;87.80;;;;;;6194267;28;20046;-80
2022/02/16 13:49:53;;;;;;;3.50;0.00;;;12.40;88.80;;;;;;6202642;28;20070;-79
2022/02/16 13:52:55;;;;;;;0.40;0.05;;;12.40;88.80;;;;;;6203391;28;20441;-80
2022/02/16 13:55:57;;;;;;;0.20;0.00;;;12.40;89.20;;;;;;6202510;28;20043;-80
2022/02/16 13:59:05;;;;;;;0.20;0.00;;;12.40;89.60;;;;;;6201667;28;20052;-80
2022/02/16 14:02:08;;;;;;;;;;;12.40;90.00;;;;;;6200459;28;20042;-80
2022/02/16 14:05:13;;;;;;;0.38;0.10;;;12.40;90.30;;;;;;6180835;28;19973;-79
2022/02/16 14:08:15;;;;;;;1.45;0.80;;;12.20;90.40;;;;;;6182797;28;20055;-80
2022/02/16 14:11:20;;;;;;;0.38;0.10;;;12.20;90.70;;;;;;6183247;28;20050;-80
2022/02/16 14:14:22;;;;;;;1.70;0.47;;;12.30;90.90;;;;;;6189658;28;20043;-79
2022/02/16 14:17:24;;;;;;;0.20;0.00;;;12.30;91.20;;;;;;6203630;28;20415;-81
2022/02/16 14:20:27;;;;;;;0.00;0.00;;;12.20;91.10;;;;;;6193704;28;20176;-80
2022/02/16 14:23:29;;;;;;;0.50;0.03;;;12.10;91.40;;;;;;6182313;28;20504;-81
2022/02/16 14:26:31;;;;;;;0.00;0.00;;;12.00;91.80;;;;;;6182197;28;20054;-81
2022/02/16 14:29:33;;;;;;;1.20;0.45;;;11.90;92.10;;;;;;6182430;28;20046;-80
2022/02/16 14:32:35;;;;;;;0.32;0.17;;;11.80;92.60;;;;;;6183153;28;20137;-81
2022/02/16 14:35:38;;;;;;;0.30;0.20;;;11.70;93.30;;;;;;6181768;28;20133;-82
2022/02/16 14:38:40;;;;;;;1.48;0.30;;;11.60;93.40;;;;;;6181841;28;20051;-81
2022/02/16 14:41:42;;;;;;;0.73;0.55;;;11.50;94.30;;;;;;6182017;28;20050;-82
2022/02/16 14:44:44;;;;;;;0.38;0.10;;;11.60;94.30;;;;;;6190715;28;20536;-81
2022/02/16 14:47:49;;;;;;;0.55;0.20;;;11.60;94.30;;;;;;6205849;28;20124;-81
2022/02/16 14:50:52;;;;;;;0.30;0.10;;;11.60;94.00;;;;;;6206042;28;20050;-82
2022/02/16 14:53:54;;;;;;;0.30;0.20;;;11.60;94.00;;;;;;6205751;28;20046;-82
2022/02/16 14:56:55;;;;;;;0.65;0.10;;;11.50;93.80;;;;;;6207335;28;20073;-81
2022/02/16 14:59:57;;;;;;;0.60;0.20;;;11.60;93.80;;;;;;6206393;28;20046;-81
2022/02/16 15:02:59;;;;;;;0.73;0.20;;;11.70;93.90;;;;;;6206506;28;20043;-82
2022/02/16 15:06:02;;;;;;;0.10;0.10;;;11.80;93.00;;;;;;6205660;28;20038;-81
2022/02/16 15:09:04;;;;;;;16.45;11.85;;;11.80;92.70;;;;;;6181760;28;20504;-82
2022/02/16 15:12:07;;;;;;;0.43;0.20;;;11.90;92.30;;;;;;6182369;28;20414;-82
2022/02/16 15:15:09;;;;;;;0.20;0.10;;;12.00;91.90;;;;;;6195150;28;20407;-81
2022/02/16 15:18:11;;;;;;;0.28;0.05;;;12.00;91.60;;;;;;6205177;28;20042;-80
2022/02/16 15:21:14;;;;;;;1.60;0.45;;;12.20;91.30;;;;;;6206913;28;20133;-81
2022/02/16 15:24:17;;;;;;;0.43;0.25;;;12.20;91.00;;;;;;6207018;28;20046;-80
2022/02/16 15:27:19;;;;;;;0.20;0.10;;;12.30;90.70;;;;;;6180782;28;20043;-81
2022/02/16 15:30:21;;;;;;;0.28;0.10;;;12.30;90.50;;;;;;6189709;28;20047;-80
2022/02/16 15:33:23;;;;;;;0.65;0.22;;;12.50;90.30;;;;;;6182253;28;20055;-81
2022/02/16 15:36:27;;;;;;;0.28;0.10;;;12.60;90.00;;;;;;6181152;28;20082;-80
2022/02/16 15:39:29;;;;;;;0.05;0.05;;;12.60;89.30;;;;;;6184463;28;20114;-80
2022/02/16 15:42:30;;;;;;;1.42;0.40;;;12.70;88.60;;;;;;6182726;28;20057;-80
2022/02/16 15:45:33;;;;;;;1.17;0.10;;;12.80;88.30;;;;;;6194677;28;20408;-80
2022/02/16 15:48:34;;;;;;;4.47;0.40;;;12.90;87.60;;;;;;6202050;28;20054;-79
2022/02/16 15:51:38;;;;;;;0.60;0.20;;;13.00;87.10;;;;;;6202700;28;20056;-80
2022/02/16 15:54:40;;;;;;;0.10;0.10;;;13.20;86.90;;;;;;6200228;28;20042;-80
2022/02/16 15:57:41;;;;;;;0.20;0.00;;;13.20;86.20;;;;;;6200904;28;20042;-81
2022/02/16 16:00:43;;;;;;;0.20;0.05;;;13.20;85.80;;;;;;6195446;28;20167;-81
2022/02/16 16:03:46;;;;;;;0.30;0.03;;;13.30;85.80;;;;;;6177082;28;20047;-80